createdAt,value
2019-02-06T00:00:26.609Z,1021.69
2019-02-06T00:01:20.363Z,1021.58
2019-02-06T00:02:19.366Z,1021.69
2019-02-06T00:03:19.333Z,1021.62
2019-02-06T00:04:19.347Z,1021.64
2019-02-06T00:05:19.325Z,1021.59
2019-02-06T00:06:19.312Z,1021.60
2019-02-06T00:07:19.287Z,1021.68
2019-02-06T00:08:19.291Z,1021.63
2019-02-06T00:09:19.336Z,1021.63
2019-02-06T00:10:19.298Z,1021.67
2019-02-06T00:11:19.243Z,1021.68
2019-02-06T00:12:19.247Z,1021.75
2019-02-06T00:13:19.229Z,1021.74
2019-02-06T00:14:19.209Z,1021.70
2019-02-06T00:15:19.242Z,1021.75
2019-02-06T00:16:19.240Z,1021.75
2019-02-06T00:17:19.184Z,1021.64
2019-02-06T00:18:19.198Z,1021.75
2019-02-06T00:19:19.182Z,1021.79
2019-02-06T00:20:19.207Z,1021.73
2019-02-06T00:21:20.639Z,1021.74
2019-02-06T00:22:19.121Z,1021.77
2019-02-06T00:23:19.124Z,1021.77
2019-02-06T00:24:19.152Z,1021.75
2019-02-06T00:25:19.088Z,1021.74
2019-02-06T00:26:19.150Z,1021.72
2019-02-06T00:27:19.076Z,1021.70
2019-02-06T00:28:19.058Z,1021.74
2019-02-06T00:29:19.058Z,1021.71
2019-02-06T00:30:19.046Z,1021.72
2019-02-06T00:31:19.088Z,1021.74
2019-02-06T00:32:19.022Z,1021.65
2019-02-06T00:33:19.005Z,1021.79
2019-02-06T00:34:18.997Z,1021.68
2019-02-06T00:35:25.755Z,1021.65
2019-02-06T00:36:19.972Z,1021.62
2019-02-06T00:37:18.964Z,1021.65
2019-02-06T00:38:18.967Z,1021.69
2019-02-06T00:39:18.934Z,1021.70
2019-02-06T00:40:18.932Z,1021.81
2019-02-06T00:41:18.916Z,1021.81
2019-02-06T00:42:18.899Z,1021.70
2019-02-06T00:43:18.961Z,1021.70
2019-02-06T00:44:18.903Z,1021.80
2019-02-06T00:45:18.873Z,1021.74
2019-02-06T00:46:18.864Z,1021.78
2019-02-06T00:47:18.849Z,1021.67
2019-02-06T00:48:18.973Z,1021.66
2019-02-06T00:49:18.839Z,1021.69
2019-02-06T00:50:18.821Z,1021.70
2019-02-06T00:51:18.806Z,1021.70
2019-02-06T00:52:18.917Z,1021.74
2019-02-06T00:53:18.963Z,1021.67
2019-02-06T00:54:18.773Z,1021.67
2019-02-06T00:55:18.932Z,1021.71
2019-02-06T00:56:18.745Z,1021.77
2019-02-06T00:57:18.749Z,1021.70
2019-02-06T00:58:18.729Z,1021.70
2019-02-06T00:59:18.885Z,1021.67
2019-02-06T01:00:18.704Z,1021.66
2019-02-06T01:01:18.701Z,1021.73
2019-02-06T01:02:18.716Z,1021.69
2019-02-06T01:03:18.688Z,1021.68
2019-02-06T01:04:18.657Z,1021.71
2019-02-06T01:05:18.669Z,1021.71
2019-02-06T01:06:18.766Z,1021.72
2019-02-06T01:07:18.633Z,1021.78
2019-02-06T01:08:18.622Z,1021.78
2019-02-06T01:09:18.600Z,1021.75
2019-02-06T01:10:18.586Z,1021.80
2019-02-06T01:11:18.606Z,1021.75
2019-02-06T01:12:18.577Z,1021.77
2019-02-06T01:13:18.577Z,1021.77
2019-02-06T01:14:18.576Z,1021.80
2019-02-06T01:15:18.580Z,1021.78
2019-02-06T01:16:18.516Z,1021.70
2019-02-06T01:17:18.516Z,1021.78
2019-02-06T01:18:18.506Z,1021.72
2019-02-06T01:19:18.504Z,1021.76
2019-02-06T01:20:18.484Z,1021.87
2019-02-06T01:21:18.467Z,1021.76
2019-02-06T01:22:18.464Z,1021.82
2019-02-06T01:23:18.451Z,1021.67
2019-02-06T01:24:18.436Z,1021.78
2019-02-06T01:25:18.422Z,1021.77
2019-02-06T01:26:18.539Z,1021.79
2019-02-06T01:27:18.406Z,1021.65
2019-02-06T01:28:18.390Z,1021.68
2019-02-06T01:29:18.384Z,1021.73
2019-02-06T01:30:18.376Z,1021.73
2019-02-06T01:31:18.358Z,1021.73
2019-02-06T01:32:18.349Z,1021.74
2019-02-06T01:33:18.337Z,1021.71
2019-02-06T01:34:18.330Z,1021.69
2019-02-06T01:35:18.315Z,1021.68
2019-02-06T01:36:18.307Z,1021.69
2019-02-06T01:37:18.294Z,1021.67
2019-02-06T01:38:18.275Z,1021.73
2019-02-06T01:39:18.310Z,1021.72
2019-02-06T01:40:18.274Z,1021.72
2019-02-06T01:41:18.305Z,1021.78
2019-02-06T01:42:18.317Z,1021.74
2019-02-06T01:43:18.230Z,1021.73
2019-02-06T01:44:18.213Z,1021.79
2019-02-06T01:45:18.203Z,1021.76
2019-02-06T01:46:18.228Z,1021.80
2019-02-06T01:47:18.244Z,1021.85
2019-02-06T01:48:18.221Z,1021.85
2019-02-06T01:49:18.161Z,1021.86
2019-02-06T01:50:18.140Z,1021.82
2019-02-06T01:51:18.251Z,1021.79
2019-02-06T01:52:18.117Z,1021.83
2019-02-06T01:53:18.108Z,1021.80
2019-02-06T01:54:18.106Z,1021.84
2019-02-06T01:55:18.158Z,1021.78
2019-02-06T01:56:18.085Z,1021.78
2019-02-06T01:57:18.103Z,1021.78
2019-02-06T01:58:18.057Z,1021.79
2019-02-06T01:59:18.100Z,1021.80
2019-02-06T02:00:18.070Z,1021.81
2019-02-06T02:01:18.022Z,1021.79
2019-02-06T02:02:18.013Z,1021.84
2019-02-06T02:03:17.996Z,1021.79
2019-02-06T02:04:17.997Z,1021.78
2019-02-06T02:05:18.005Z,1021.81
2019-02-06T02:06:17.961Z,1021.80
2019-02-06T02:07:17.953Z,1021.78
2019-02-06T02:08:17.940Z,1021.76
2019-02-06T02:09:17.930Z,1021.79
2019-02-06T02:10:17.922Z,1021.75
2019-02-06T02:11:17.929Z,1021.75
2019-02-06T02:12:17.895Z,1021.76
2019-02-06T02:13:17.892Z,1021.71
2019-02-06T02:14:17.879Z,1021.75
2019-02-06T02:15:17.878Z,1021.73
2019-02-06T02:16:17.874Z,1021.72
2019-02-06T02:17:17.844Z,1021.66
2019-02-06T02:18:17.836Z,1021.69
2019-02-06T02:19:17.825Z,1021.69
2019-02-06T02:20:17.812Z,1021.65
2019-02-06T02:21:17.803Z,1021.70
2019-02-06T02:22:17.789Z,1021.70
2019-02-06T02:23:17.774Z,1021.69
2019-02-06T02:24:17.765Z,1021.67
2019-02-06T02:25:17.765Z,1021.73
2019-02-06T02:26:17.743Z,1021.70
2019-02-06T02:27:17.769Z,1021.76
2019-02-06T02:28:17.728Z,1021.78
2019-02-06T02:29:17.704Z,1021.83
2019-02-06T02:30:17.696Z,1021.78
2019-02-06T02:31:17.681Z,1021.91
2019-02-06T02:32:17.677Z,1021.91
2019-02-06T02:33:17.664Z,1021.85
2019-02-06T02:34:17.663Z,1021.84
2019-02-06T02:35:17.678Z,1021.90
2019-02-06T02:36:17.633Z,1021.82
2019-02-06T02:37:17.643Z,1021.78
2019-02-06T02:38:17.610Z,1021.81
2019-02-06T02:39:17.642Z,1021.82
2019-02-06T02:40:17.590Z,1021.72
2019-02-06T02:41:17.579Z,1021.80
2019-02-06T02:42:17.564Z,1021.77
2019-02-06T02:43:17.550Z,1021.75
2019-02-06T02:44:17.531Z,1021.78
2019-02-06T02:45:17.545Z,1021.73
2019-02-06T02:46:17.574Z,1021.76
2019-02-06T02:47:17.509Z,1021.73
2019-02-06T02:48:17.518Z,1021.79
2019-02-06T02:49:17.495Z,1021.76
2019-02-06T02:50:17.465Z,1021.76
2019-02-06T02:51:17.467Z,1021.79
2019-02-06T02:52:17.448Z,1021.73
2019-02-06T02:53:17.438Z,1021.72
2019-02-06T02:54:17.460Z,1021.79
2019-02-06T02:55:17.423Z,1021.73
2019-02-06T02:56:17.410Z,1021.75
2019-02-06T02:57:17.404Z,1021.71
2019-02-06T02:58:17.381Z,1021.73
2019-02-06T02:59:17.382Z,1021.67
2019-02-06T03:00:17.362Z,1021.67
2019-02-06T03:01:17.360Z,1021.66
2019-02-06T03:02:17.344Z,1021.70
2019-02-06T03:03:17.334Z,1021.70
2019-02-06T03:04:17.360Z,1021.65
2019-02-06T03:05:17.306Z,1021.70
2019-02-06T03:06:27.506Z,1021.60
2019-02-06T03:07:18.288Z,1021.65
2019-02-06T03:08:17.273Z,1021.65
2019-02-06T03:09:17.265Z,1021.63
2019-02-06T03:10:17.256Z,1021.75
2019-02-06T03:11:17.234Z,1021.68
2019-02-06T03:12:17.304Z,1021.71
2019-02-06T03:13:17.211Z,1021.66
2019-02-06T03:14:17.208Z,1021.73
2019-02-06T03:15:17.202Z,1021.67
2019-02-06T03:16:17.208Z,1021.59
2019-02-06T03:17:17.179Z,1021.68
2019-02-06T03:18:17.213Z,1021.62
2019-02-06T03:19:17.154Z,1021.63
2019-02-06T03:20:17.204Z,1021.60
2019-02-06T03:21:17.165Z,1021.57
2019-02-06T03:22:17.160Z,1021.59
2019-02-06T03:23:17.105Z,1021.68
2019-02-06T03:24:17.092Z,1021.60
2019-02-06T03:25:17.140Z,1021.64
2019-02-06T03:26:17.120Z,1021.62
2019-02-06T03:27:17.118Z,1021.59
2019-02-06T03:28:17.083Z,1021.58
2019-02-06T03:29:17.063Z,1021.62
2019-02-06T03:30:17.101Z,1021.56
2019-02-06T03:31:17.028Z,1021.59
2019-02-06T03:32:17.011Z,1021.56
2019-02-06T03:33:17.037Z,1021.59
2019-02-06T03:34:16.990Z,1021.55
2019-02-06T03:35:16.965Z,1021.53
2019-02-06T03:36:16.958Z,1021.56
2019-02-06T03:37:16.970Z,1021.54
2019-02-06T03:38:16.942Z,1021.61
2019-02-06T03:39:16.926Z,1021.56
2019-02-06T03:40:16.922Z,1021.60
2019-02-06T03:41:16.899Z,1021.56
2019-02-06T03:42:16.887Z,1021.54
2019-02-06T03:43:16.888Z,1021.56
2019-02-06T03:44:16.866Z,1021.58
2019-02-06T03:45:16.899Z,1021.56
2019-02-06T03:46:16.882Z,1021.56
2019-02-06T03:47:16.834Z,1021.49
2019-02-06T03:48:16.830Z,1021.45
2019-02-06T03:49:16.822Z,1021.48
2019-02-06T03:50:16.796Z,1021.45
2019-02-06T03:51:16.788Z,1021.46
2019-02-06T03:52:16.773Z,1021.50
2019-02-06T03:53:16.766Z,1021.44
2019-02-06T03:54:16.764Z,1021.47
2019-02-06T03:55:16.756Z,1021.44
2019-02-06T03:56:16.796Z,1021.42
2019-02-06T03:57:16.717Z,1021.44
2019-02-06T03:58:16.774Z,1021.47
2019-02-06T03:59:16.695Z,1021.48
2019-02-06T04:00:16.725Z,1021.50
2019-02-06T04:01:16.672Z,1021.48
2019-02-06T04:02:16.679Z,1021.47
2019-02-06T04:03:16.648Z,1021.48
2019-02-06T04:04:16.643Z,1021.48
2019-02-06T04:05:16.627Z,1021.50
2019-02-06T04:06:16.620Z,1021.49
2019-02-06T04:07:16.619Z,1021.53
2019-02-06T04:08:16.608Z,1021.48
2019-02-06T04:09:16.616Z,1021.59
2019-02-06T04:10:16.576Z,1021.62
2019-02-06T04:11:16.569Z,1021.59
2019-02-06T04:12:16.561Z,1021.49
2019-02-06T04:13:16.574Z,1021.46
2019-02-06T04:14:16.550Z,1021.53
2019-02-06T04:15:16.515Z,1021.51
2019-02-06T04:16:16.509Z,1021.48
2019-02-06T04:17:16.529Z,1021.45
2019-02-06T04:18:16.522Z,1021.50
2019-02-06T04:19:16.509Z,1021.45
2019-02-06T04:20:16.462Z,1021.45
2019-02-06T04:21:16.447Z,1021.42
2019-02-06T04:22:16.485Z,1021.36
2019-02-06T04:23:16.441Z,1021.37
2019-02-06T04:24:16.434Z,1021.38
2019-02-06T04:25:16.439Z,1021.34
2019-02-06T04:26:16.447Z,1021.39
2019-02-06T04:27:16.447Z,1021.38
2019-02-06T04:28:16.379Z,1021.36
2019-02-06T04:29:16.374Z,1021.38
2019-02-06T04:30:16.362Z,1021.41
2019-02-06T04:31:16.366Z,1021.36
2019-02-06T04:32:16.329Z,1021.39
2019-02-06T04:33:16.320Z,1021.37
2019-02-06T04:34:16.313Z,1021.42
2019-02-06T04:35:16.332Z,1021.42
2019-02-06T04:36:16.332Z,1021.37
2019-02-06T04:37:16.270Z,1021.39
2019-02-06T04:38:16.263Z,1021.42
2019-02-06T04:39:16.249Z,1021.39
2019-02-06T04:40:16.249Z,1021.37
2019-02-06T04:41:16.234Z,1021.38
2019-02-06T04:42:16.252Z,1021.42
2019-02-06T04:43:16.223Z,1021.41
2019-02-06T04:44:16.225Z,1021.37
2019-02-06T04:45:16.184Z,1021.42
2019-02-06T04:46:16.167Z,1021.38
2019-02-06T04:47:16.179Z,1021.30
2019-02-06T04:48:16.186Z,1021.39
2019-02-06T04:49:16.153Z,1021.36
2019-02-06T04:50:16.125Z,1021.35
2019-02-06T04:51:16.110Z,1021.31
2019-02-06T04:52:16.129Z,1021.36
2019-02-06T04:53:16.099Z,1021.35
2019-02-06T04:54:16.085Z,1021.35
2019-02-06T04:55:16.082Z,1021.32
2019-02-06T04:56:16.073Z,1021.27
2019-02-06T04:57:16.050Z,1021.28
2019-02-06T04:58:16.122Z,1021.28
2019-02-06T04:59:16.032Z,1021.29
2019-02-06T05:00:16.009Z,1021.23
2019-02-06T05:01:16.015Z,1021.28
2019-02-06T05:02:15.987Z,1021.27
2019-02-06T05:03:15.984Z,1021.27
2019-02-06T05:04:15.981Z,1021.30
2019-02-06T05:05:15.959Z,1021.25
2019-02-06T05:06:15.965Z,1021.25
2019-02-06T05:07:19.433Z,1021.30
2019-02-06T05:08:15.918Z,1021.28
2019-02-06T05:09:15.916Z,1021.27
2019-02-06T05:10:15.912Z,1021.32
2019-02-06T05:11:16.015Z,1021.26
2019-02-06T05:12:15.889Z,1021.27
2019-02-06T05:13:15.893Z,1021.27
2019-02-06T05:14:15.853Z,1021.30
2019-02-06T05:15:15.853Z,1021.26
2019-02-06T05:16:15.897Z,1021.31
2019-02-06T05:17:15.820Z,1021.26
2019-02-06T05:18:15.820Z,1021.24
2019-02-06T05:19:15.810Z,1021.30
2019-02-06T05:20:15.792Z,1021.28
2019-02-06T05:21:15.798Z,1021.21
2019-02-06T05:22:15.843Z,1021.24
2019-02-06T05:23:15.755Z,1021.21
2019-02-06T05:24:15.752Z,1021.26
2019-02-06T05:25:15.740Z,1021.21
2019-02-06T05:26:15.739Z,1021.24
2019-02-06T05:27:15.736Z,1021.29
2019-02-06T05:28:18.087Z,1021.23
2019-02-06T05:29:15.697Z,1021.30
2019-02-06T05:30:15.691Z,1021.23
2019-02-06T05:31:15.685Z,1021.25
2019-02-06T05:32:15.664Z,1021.24
2019-02-06T05:33:15.664Z,1021.26
2019-02-06T05:34:15.639Z,1021.22
2019-02-06T05:35:15.623Z,1021.25
2019-02-06T05:36:15.620Z,1021.31
2019-02-06T05:37:15.615Z,1021.20
2019-02-06T05:38:15.601Z,1021.34
2019-02-06T05:39:15.658Z,1021.20
2019-02-06T05:40:15.632Z,1021.31
2019-02-06T05:41:15.561Z,1021.34
2019-02-06T05:42:15.544Z,1021.36
2019-02-06T05:43:15.550Z,1021.34
2019-02-06T05:44:15.552Z,1021.33
2019-02-06T05:45:15.517Z,1021.36
2019-02-06T05:46:15.509Z,1021.38
2019-02-06T05:47:15.508Z,1021.39
2019-02-06T05:48:15.483Z,1021.35
2019-02-06T05:49:15.497Z,1021.30
2019-02-06T05:50:15.467Z,1021.36
2019-02-06T05:51:15.457Z,1021.27
2019-02-06T05:52:15.441Z,1021.22
2019-02-06T05:53:15.432Z,1021.22
2019-02-06T05:54:15.426Z,1021.22
2019-02-06T05:55:15.416Z,1021.20
2019-02-06T05:56:15.400Z,1021.23
2019-02-06T05:57:15.387Z,1021.22
2019-02-06T05:58:15.387Z,1021.21
2019-02-06T05:59:15.369Z,1021.22
2019-02-06T06:00:15.362Z,1021.26
2019-02-06T06:01:15.356Z,1021.30
2019-02-06T06:02:15.339Z,1021.29
2019-02-06T06:03:15.316Z,1021.41
2019-02-06T06:04:15.477Z,1021.32
2019-02-06T06:05:15.300Z,1021.28
2019-02-06T06:06:15.297Z,1021.28
2019-02-06T06:07:15.345Z,1021.26
2019-02-06T06:08:15.265Z,1021.31
2019-02-06T06:09:15.258Z,1021.31
2019-02-06T06:10:15.299Z,1021.28
2019-02-06T06:11:15.279Z,1021.26
2019-02-06T06:12:15.268Z,1021.28
2019-02-06T06:13:18.371Z,1021.33
2019-02-06T06:14:15.199Z,1021.30
2019-02-06T06:15:15.222Z,1021.27
2019-02-06T06:16:15.198Z,1021.31
2019-02-06T06:17:15.207Z,1021.33
2019-02-06T06:18:15.162Z,1021.37
2019-02-06T06:19:15.151Z,1021.36
2019-02-06T06:20:15.134Z,1021.33
2019-02-06T06:21:15.141Z,1021.44
2019-02-06T06:22:15.132Z,1021.38
2019-02-06T06:23:15.108Z,1021.31
2019-02-06T06:24:15.112Z,1021.30
2019-02-06T06:25:15.089Z,1021.22
2019-02-06T06:26:15.094Z,1021.28
2019-02-06T06:27:15.063Z,1021.26
2019-02-06T06:28:15.091Z,1021.27
2019-02-06T06:29:15.048Z,1021.24
2019-02-06T06:30:15.066Z,1021.25
2019-02-06T06:31:15.023Z,1021.27
2019-02-06T06:32:15.014Z,1021.29
2019-02-06T06:33:15.004Z,1021.37
2019-02-06T06:34:14.985Z,1021.27
2019-02-06T06:35:15.150Z,1021.35
2019-02-06T06:36:15.041Z,1021.20
2019-02-06T06:37:14.982Z,1021.21
2019-02-06T06:38:14.953Z,1021.28
2019-02-06T06:39:14.938Z,1021.17
2019-02-06T06:40:14.924Z,1021.29
2019-02-06T06:41:14.926Z,1021.23
2019-02-06T06:42:14.972Z,1021.29
2019-02-06T06:43:16.292Z,1021.19
2019-02-06T06:44:14.884Z,1021.27
2019-02-06T06:45:14.873Z,1021.22
2019-02-06T06:46:14.859Z,1021.22
2019-02-06T06:47:14.843Z,1021.20
2019-02-06T06:48:14.836Z,1021.22
2019-02-06T06:49:14.875Z,1021.11
2019-02-06T06:50:14.816Z,1021.20
2019-02-06T06:51:14.798Z,1021.21
2019-02-06T06:52:14.800Z,1021.17
2019-02-06T06:53:14.824Z,1021.18
2019-02-06T06:54:14.768Z,1021.17
2019-02-06T06:55:14.756Z,1021.15
2019-02-06T06:56:14.757Z,1021.17
2019-02-06T06:57:14.737Z,1021.11
2019-02-06T06:58:14.730Z,1021.15
2019-02-06T06:59:14.716Z,1021.15
2019-02-06T07:00:14.703Z,1021.02
2019-02-06T07:01:14.721Z,1021.09
2019-02-06T07:02:14.748Z,1021.08
2019-02-06T07:03:14.716Z,1021.07
2019-02-06T07:04:14.675Z,1021.09
2019-02-06T07:05:14.647Z,1021.07
2019-02-06T07:06:14.626Z,1021.05
2019-02-06T07:07:14.625Z,1021.03
2019-02-06T07:08:14.619Z,1021.06
2019-02-06T07:09:14.625Z,1021.05
2019-02-06T07:10:14.702Z,1021.02
2019-02-06T07:11:14.578Z,1021.05
2019-02-06T07:12:14.568Z,1021.04
2019-02-06T07:13:14.563Z,1021.06
2019-02-06T07:14:14.549Z,1021.07
2019-02-06T07:15:14.543Z,1021.00
2019-02-06T07:16:14.530Z,1021.00
2019-02-06T07:17:14.811Z,1020.94
2019-02-06T07:18:14.502Z,1020.98
2019-02-06T07:19:14.546Z,1020.94
2019-02-06T07:20:14.477Z,1020.91
2019-02-06T07:21:14.469Z,1020.86
2019-02-06T07:22:14.467Z,1020.94
2019-02-06T07:23:14.450Z,1020.86
2019-02-06T07:24:14.447Z,1020.84
2019-02-06T07:25:14.435Z,1020.82
2019-02-06T07:26:14.433Z,1020.81
2019-02-06T07:27:14.450Z,1020.81
2019-02-06T07:28:14.395Z,1020.78
2019-02-06T07:29:14.391Z,1020.74
2019-02-06T07:30:14.374Z,1020.77
2019-02-06T07:31:14.377Z,1020.66
2019-02-06T07:32:14.365Z,1020.61
2019-02-06T07:33:14.334Z,1020.76
2019-02-06T07:34:14.331Z,1020.69
2019-02-06T07:35:14.337Z,1020.70
2019-02-06T07:36:14.320Z,1020.66
2019-02-06T07:37:14.300Z,1020.62
2019-02-06T07:38:23.909Z,1020.75
2019-02-06T07:39:15.268Z,1020.77
2019-02-06T07:40:14.264Z,1020.74
2019-02-06T07:41:14.258Z,1020.76
2019-02-06T07:42:14.254Z,1020.84
2019-02-06T07:43:14.255Z,1020.79
2019-02-06T07:44:14.217Z,1020.81
2019-02-06T07:45:14.247Z,1020.86
2019-02-06T07:46:14.192Z,1020.87
2019-02-06T07:47:14.192Z,1020.86
2019-02-06T07:48:14.188Z,1020.91
2019-02-06T07:49:14.184Z,1020.89
2019-02-06T07:50:14.155Z,1020.84
2019-02-06T07:51:14.144Z,1020.87
2019-02-06T07:52:14.129Z,1020.80
2019-02-06T07:53:14.123Z,1020.86
2019-02-06T07:54:14.133Z,1020.88
2019-02-06T07:55:14.104Z,1020.87
2019-02-06T07:56:14.086Z,1020.88
2019-02-06T07:57:14.073Z,1020.91
2019-02-06T07:58:14.072Z,1020.95
2019-02-06T07:59:14.073Z,1020.92
2019-02-06T08:00:14.057Z,1020.93
2019-02-06T08:01:14.030Z,1020.92
2019-02-06T08:02:14.013Z,1020.92
2019-02-06T08:03:14.015Z,1020.90
2019-02-06T08:04:14.000Z,1020.94
2019-02-06T08:05:13.999Z,1020.91
2019-02-06T08:06:14.005Z,1020.93
2019-02-06T08:07:13.972Z,1020.93
2019-02-06T08:08:13.950Z,1020.94
2019-02-06T08:09:13.950Z,1020.93
2019-02-06T08:10:13.937Z,1020.82
2019-02-06T08:11:13.939Z,1020.87
2019-02-06T08:12:13.924Z,1020.89
2019-02-06T08:13:13.909Z,1020.82
2019-02-06T08:14:13.888Z,1020.85
2019-02-06T08:15:13.885Z,1020.86
2019-02-06T08:16:13.873Z,1020.84
2019-02-06T08:17:13.877Z,1020.81
2019-02-06T08:18:13.864Z,1020.81
2019-02-06T08:19:13.833Z,1020.79
2019-02-06T08:20:13.855Z,1020.82
2019-02-06T08:21:13.818Z,1020.87
2019-02-06T08:22:13.805Z,1020.85
2019-02-06T08:23:13.792Z,1020.88
2019-02-06T08:24:13.786Z,1020.85
2019-02-06T08:25:13.769Z,1020.80
2019-02-06T08:26:13.815Z,1020.77
2019-02-06T08:27:13.772Z,1020.71
2019-02-06T08:28:13.736Z,1020.73
2019-02-06T08:29:13.723Z,1020.73
2019-02-06T08:30:13.710Z,1020.71
2019-02-06T08:31:13.710Z,1020.63
2019-02-06T08:32:13.696Z,1020.66
2019-02-06T08:33:13.707Z,1020.63
2019-02-06T08:34:13.680Z,1020.62
2019-02-06T08:35:13.657Z,1020.60
2019-02-06T08:36:13.645Z,1020.65
2019-02-06T08:37:13.648Z,1020.60
2019-02-06T08:38:13.634Z,1020.61
2019-02-06T08:39:13.617Z,1020.59
2019-02-06T08:40:13.624Z,1020.63
2019-02-06T08:41:13.600Z,1020.63
2019-02-06T08:42:13.581Z,1020.63
2019-02-06T08:43:13.625Z,1020.63
2019-02-06T08:44:13.571Z,1020.63
2019-02-06T08:45:13.557Z,1020.58
2019-02-06T08:46:13.566Z,1020.49
2019-02-06T08:47:13.533Z,1020.55
2019-02-06T08:48:13.525Z,1020.50
2019-02-06T08:49:13.515Z,1020.51
2019-02-06T08:50:13.510Z,1020.52
2019-02-06T08:51:13.492Z,1020.49
2019-02-06T08:52:13.481Z,1020.50
2019-02-06T08:53:13.477Z,1020.45
2019-02-06T08:54:13.451Z,1020.37
2019-02-06T08:55:13.455Z,1020.43
2019-02-06T08:56:13.435Z,1020.36
2019-02-06T08:57:13.435Z,1020.38
2019-02-06T08:58:13.424Z,1020.29
2019-02-06T08:59:13.416Z,1020.40
2019-02-06T09:00:13.391Z,1020.41
2019-02-06T09:01:13.378Z,1020.35
2019-02-06T09:02:13.375Z,1020.34
2019-02-06T09:03:13.368Z,1020.33
2019-02-06T09:04:13.349Z,1020.30
2019-02-06T09:05:13.394Z,1020.28
2019-02-06T09:06:13.324Z,1020.26
2019-02-06T09:07:13.320Z,1020.35
2019-02-06T09:08:13.306Z,1020.31
2019-02-06T09:09:13.306Z,1020.35
2019-02-06T09:10:13.547Z,1020.31
2019-02-06T09:11:13.279Z,1020.32
2019-02-06T09:12:13.263Z,1020.26
2019-02-06T09:13:13.282Z,1020.34
2019-02-06T09:14:13.252Z,1020.32
2019-02-06T09:15:13.222Z,1020.26
2019-02-06T09:16:13.221Z,1020.25
2019-02-06T09:17:13.205Z,1020.31
2019-02-06T09:18:13.199Z,1020.28
2019-02-06T09:19:13.201Z,1020.33
2019-02-06T09:20:13.188Z,1020.29
2019-02-06T09:21:13.161Z,1020.35
2019-02-06T09:22:13.161Z,1020.33
2019-02-06T09:23:13.146Z,1020.31
2019-02-06T09:24:13.131Z,1020.34
2019-02-06T09:25:13.208Z,1020.30
2019-02-06T09:26:13.125Z,1020.34
2019-02-06T09:27:13.101Z,1020.37
2019-02-06T09:28:13.094Z,1020.35
2019-02-06T09:29:13.098Z,1020.37
2019-02-06T09:30:13.069Z,1020.33
2019-02-06T09:31:13.214Z,1020.37
2019-02-06T09:32:13.039Z,1020.38
2019-02-06T09:33:13.033Z,1020.42
2019-02-06T09:34:13.023Z,1020.39
2019-02-06T09:35:13.015Z,1020.43
2019-02-06T09:36:13.001Z,1020.40
2019-02-06T09:37:12.993Z,1020.36
2019-02-06T09:38:13.017Z,1020.35
2019-02-06T09:39:12.984Z,1020.40
2019-02-06T09:40:12.960Z,1020.36
2019-02-06T09:41:12.946Z,1020.35
2019-02-06T09:42:12.941Z,1020.30
2019-02-06T09:43:12.938Z,1020.36
2019-02-06T09:44:12.910Z,1020.30
2019-02-06T09:45:12.912Z,1020.24
2019-02-06T09:46:12.896Z,1020.29
2019-02-06T09:47:12.887Z,1020.29
2019-02-06T09:48:12.876Z,1020.21
2019-02-06T09:49:15.022Z,1020.14
2019-02-06T09:50:12.889Z,1020.19
2019-02-06T09:51:12.849Z,1020.17
2019-02-06T09:52:12.824Z,1020.23
2019-02-06T09:53:12.814Z,1020.24
2019-02-06T09:54:12.829Z,1020.23
2019-02-06T09:55:12.805Z,1020.26
2019-02-06T09:56:12.782Z,1020.16
2019-02-06T09:57:12.768Z,1020.16
2019-02-06T09:58:12.756Z,1020.19
2019-02-06T09:59:12.746Z,1020.22
2019-02-06T10:00:12.758Z,1020.16
2019-02-06T10:01:12.732Z,1020.19
2019-02-06T10:02:12.714Z,1020.09
2019-02-06T10:03:12.705Z,1020.07
2019-02-06T10:04:12.700Z,1020.11
2019-02-06T10:05:12.696Z,1020.02
2019-02-06T10:06:12.688Z,1020.07
2019-02-06T10:07:12.658Z,1020.09
2019-02-06T10:08:12.690Z,1020.04
2019-02-06T10:09:22.551Z,1020.00
2019-02-06T10:10:13.638Z,1020.07
2019-02-06T10:11:12.624Z,1020.04
2019-02-06T10:12:12.621Z,1020.01
2019-02-06T10:13:12.591Z,1020.00
2019-02-06T10:14:12.585Z,1019.95
2019-02-06T10:15:12.570Z,1020.01
2019-02-06T10:16:12.570Z,1019.96
2019-02-06T10:17:12.558Z,1019.97
2019-02-06T10:18:12.534Z,1019.91
2019-02-06T10:19:12.525Z,1019.95
2019-02-06T10:20:12.676Z,1019.97
2019-02-06T10:21:12.506Z,1019.94
2019-02-06T10:22:12.495Z,1019.92
2019-02-06T10:23:12.542Z,1019.92
2019-02-06T10:24:12.466Z,1019.91
2019-02-06T10:25:12.460Z,1019.84
2019-02-06T10:26:12.452Z,1019.80
2019-02-06T10:27:12.433Z,1019.72
2019-02-06T10:28:12.429Z,1019.68
2019-02-06T10:29:12.436Z,1019.64
2019-02-06T10:30:12.415Z,1019.60
2019-02-06T10:31:12.386Z,1019.62
2019-02-06T10:32:12.385Z,1019.57
2019-02-06T10:33:12.379Z,1019.56
2019-02-06T10:34:12.379Z,1019.49
2019-02-06T10:35:12.354Z,1019.50
2019-02-06T10:36:12.333Z,1019.41
2019-02-06T10:37:12.470Z,1019.46
2019-02-06T10:38:12.374Z,1019.49
2019-02-06T10:39:12.325Z,1019.47
2019-02-06T10:40:12.332Z,1019.47
2019-02-06T10:41:12.332Z,1019.43
2019-02-06T10:42:12.303Z,1019.52
2019-02-06T10:43:12.272Z,1019.56
2019-02-06T10:44:12.300Z,1019.50
2019-02-06T10:45:12.244Z,1019.51
2019-02-06T10:46:12.230Z,1019.48
2019-02-06T10:47:12.231Z,1019.48
2019-02-06T10:48:12.266Z,1019.44
2019-02-06T10:49:12.204Z,1019.40
2019-02-06T10:50:12.332Z,1019.28
2019-02-06T10:51:12.198Z,1019.33
2019-02-06T10:52:12.197Z,1019.35
2019-02-06T10:53:12.156Z,1019.35
2019-02-06T10:54:14.576Z,1019.31
2019-02-06T10:55:12.152Z,1019.22
2019-02-06T10:56:12.133Z,1019.32
2019-02-06T10:57:12.125Z,1019.32
2019-02-06T10:58:12.113Z,1019.32
2019-02-06T10:59:12.104Z,1019.35
2019-02-06T11:00:12.088Z,1019.26
2019-02-06T11:01:12.089Z,1019.29
2019-02-06T11:02:12.071Z,1019.22
2019-02-06T11:03:12.044Z,1019.26
2019-02-06T11:04:12.020Z,1019.22
2019-02-06T11:05:12.019Z,1019.21
2019-02-06T11:06:12.007Z,1019.19
2019-02-06T11:07:11.993Z,1019.21
2019-02-06T11:08:12.003Z,1019.07
2019-02-06T11:09:12.005Z,1019.13
2019-02-06T11:10:11.969Z,1019.10
2019-02-06T11:11:11.964Z,1019.14
2019-02-06T11:12:11.940Z,1019.08
2019-02-06T11:13:11.932Z,1019.12
2019-02-06T11:14:11.946Z,1019.06
2019-02-06T11:15:11.910Z,1019.07
2019-02-06T11:16:11.988Z,1019.08
2019-02-06T11:17:11.886Z,1019.02
2019-02-06T11:18:11.879Z,1018.97
2019-02-06T11:19:11.868Z,1018.94
2019-02-06T11:20:11.871Z,1018.93
2019-02-06T11:21:11.881Z,1018.94
2019-02-06T11:22:11.835Z,1018.94
2019-02-06T11:23:11.821Z,1018.96
2019-02-06T11:24:11.811Z,1019.02
2019-02-06T11:25:11.803Z,1019.11
2019-02-06T11:26:11.797Z,1019.01
2019-02-06T11:27:11.770Z,1019.04
2019-02-06T11:28:11.875Z,1019.04
2019-02-06T11:29:11.755Z,1018.95
2019-02-06T11:30:11.740Z,1018.97
2019-02-06T11:31:11.745Z,1019.01
2019-02-06T11:32:11.767Z,1018.91
2019-02-06T11:33:11.759Z,1018.89
2019-02-06T11:34:11.701Z,1018.92
2019-02-06T11:35:11.694Z,1018.89
2019-02-06T11:36:23.598Z,1018.85
2019-02-06T11:37:12.656Z,1018.83
2019-02-06T11:38:11.712Z,1018.89
2019-02-06T11:39:11.666Z,1018.76
2019-02-06T11:40:11.634Z,1018.76
2019-02-06T11:41:11.633Z,1018.72
2019-02-06T11:42:11.604Z,1018.72
2019-02-06T11:43:11.598Z,1018.68
2019-02-06T11:44:11.663Z,1018.68
2019-02-06T11:45:11.576Z,1018.68
2019-02-06T11:46:11.574Z,1018.68
2019-02-06T11:47:11.575Z,1018.71
2019-02-06T11:48:11.539Z,1018.70
2019-02-06T11:49:11.539Z,1018.65
2019-02-06T11:50:11.525Z,1018.71
2019-02-06T11:51:11.683Z,1018.68
2019-02-06T11:52:11.500Z,1018.64
2019-02-06T11:53:11.516Z,1018.62
2019-02-06T11:54:11.485Z,1018.61
2019-02-06T11:55:11.793Z,1018.51
2019-02-06T11:56:11.458Z,1018.40
2019-02-06T11:57:11.446Z,1018.45
2019-02-06T11:58:11.433Z,1018.50
2019-02-06T11:59:11.470Z,1018.43
2019-02-06T12:00:11.412Z,1018.35
2019-02-06T12:01:11.397Z,1018.27
2019-02-06T12:02:11.394Z,1018.31
2019-02-06T12:03:11.380Z,1018.26
2019-02-06T12:04:11.384Z,1018.25
2019-02-06T12:05:11.444Z,1018.21